createdAt,value
2023-05-21T00:04:01.385Z,12.90
2023-05-21T00:08:03.204Z,12.80
2023-05-21T00:12:06.500Z,12.70
2023-05-21T00:16:08.686Z,12.80
2023-05-21T00:20:13.963Z,12.80
2023-05-21T00:24:15.781Z,12.60
2023-05-21T00:28:17.532Z,12.60
2023-05-21T00:32:19.778Z,12.60
2023-05-21T00:36:23.656Z,12.70
2023-05-21T00:40:25.753Z,12.70
2023-05-21T00:44:34.039Z,12.60
2023-05-21T00:48:35.807Z,12.60
2023-05-21T00:52:41.916Z,12.60
2023-05-21T00:56:44.066Z,12.60
2023-05-21T01:00:46.723Z,12.60
2023-05-21T01:04:48.487Z,12.50
2023-05-21T01:08:50.950Z,12.60
2023-05-21T01:12:55.271Z,12.70
2023-05-21T01:16:58.243Z,12.80
2023-05-21T01:21:00.832Z,12.80
2023-05-21T01:25:03.675Z,12.70
2023-05-21T01:29:13.332Z,12.70
2023-05-21T01:33:36.348Z,12.50
2023-05-21T01:37:44.796Z,12.60
2023-05-21T01:41:47.799Z,12.70
2023-05-21T01:45:54.036Z,12.70
2023-05-21T01:49:57.371Z,12.70
2023-05-21T01:53:59.234Z,12.70
2023-05-21T01:58:02.552Z,12.60
2023-05-21T02:02:04.606Z,12.70
2023-05-21T02:06:06.354Z,12.60
2023-05-21T02:10:08.496Z,12.60
2023-05-21T02:14:10.490Z,12.60
2023-05-21T02:18:12.311Z,12.60
2023-05-21T02:22:14.207Z,12.70
2023-05-21T02:26:17.533Z,12.60
2023-05-21T02:30:19.965Z,12.60
2023-05-21T02:34:21.737Z,12.50
2023-05-21T02:38:25.860Z,12.50
2023-05-21T02:42:27.705Z,12.60
2023-05-21T02:46:29.546Z,12.60
2023-05-21T02:50:31.425Z,12.60
2023-05-21T02:54:33.152Z,12.60
2023-05-21T02:58:34.971Z,12.60
2023-05-21T03:02:36.914Z,12.40
2023-05-21T03:06:38.733Z,12.50
2023-05-21T03:10:40.502Z,12.40
2023-05-21T03:14:44.023Z,12.40
2023-05-21T03:18:45.796Z,12.40
2023-05-21T03:22:48.247Z,12.40
2023-05-21T03:26:50.341Z,12.40
2023-05-21T03:30:52.182Z,12.40
2023-05-21T03:34:53.889Z,12.30
2023-05-21T03:38:55.748Z,12.30
2023-05-21T03:42:57.554Z,12.20
2023-05-21T03:46:59.371Z,12.20
2023-05-21T03:51:01.613Z,12.10
2023-05-21T03:55:03.421Z,12.20
2023-05-21T03:59:05.205Z,12.20
2023-05-21T04:03:07.415Z,12.20
2023-05-21T04:07:14.338Z,12.20
2023-05-21T04:11:16.113Z,12.10
2023-05-21T04:15:18.614Z,12.10
2023-05-21T04:19:20.523Z,12.10
2023-05-21T04:23:23.631Z,12.10
2023-05-21T04:27:25.641Z,12.10
2023-05-21T04:31:27.430Z,12.10
2023-05-21T04:35:29.377Z,12.00
2023-05-21T04:39:31.538Z,12.10
2023-05-21T04:43:33.292Z,12.00
2023-05-21T04:47:35.454Z,12.00
2023-05-21T04:51:40.301Z,12.00
2023-05-21T04:55:42.137Z,12.00
2023-05-21T04:59:43.917Z,12.10
2023-05-21T05:03:46.101Z,12.10
2023-05-21T05:07:48.152Z,12.10
2023-05-21T05:11:50.765Z,12.20
2023-05-21T05:15:54.773Z,12.20
2023-05-21T05:19:56.710Z,12.30
2023-05-21T05:23:58.571Z,12.30
2023-05-21T05:28:00.489Z,12.30
2023-05-21T05:32:02.374Z,12.30
2023-05-21T05:36:04.737Z,12.30
2023-05-21T05:40:08.056Z,12.40
2023-05-21T05:44:10.933Z,12.40
2023-05-21T05:48:13.741Z,12.50
2023-05-21T05:52:15.886Z,12.50
2023-05-21T05:56:17.671Z,12.60
2023-05-21T06:00:19.933Z,12.50
2023-05-21T06:04:21.712Z,12.60
2023-05-21T06:08:24.386Z,12.70
2023-05-21T06:12:26.416Z,12.70
2023-05-21T06:16:31.511Z,12.80
2023-05-21T06:20:33.460Z,12.80
2023-05-21T06:24:35.302Z,12.90
2023-05-21T06:28:37.855Z,12.90
2023-05-21T06:32:39.645Z,12.90
2023-05-21T06:36:41.526Z,13.00
2023-05-21T06:40:44.626Z,13.20
2023-05-21T06:44:46.370Z,13.10
2023-05-21T06:48:48.228Z,13.20
2023-05-21T06:52:51.401Z,13.40
2023-05-21T06:56:53.274Z,13.20
2023-05-21T07:00:55.109Z,13.40
2023-05-21T07:04:56.886Z,13.30
2023-05-21T07:08:58.884Z,13.40
2023-05-21T07:13:00.633Z,13.50
2023-05-21T07:17:02.630Z,13.70
2023-05-21T07:21:04.654Z,13.70
2023-05-21T07:25:07.223Z,13.90
2023-05-21T07:29:09.009Z,14.00
2023-05-21T07:33:10.871Z,14.20
2023-05-21T07:37:13.788Z,14.10
2023-05-21T07:41:17.861Z,14.20
2023-05-21T07:45:20.503Z,14.30
2023-05-21T07:49:22.374Z,14.60
2023-05-21T07:53:24.160Z,14.70
2023-05-21T07:57:25.979Z,14.90
2023-05-21T08:01:29.656Z,15.00
2023-05-21T08:05:32.934Z,15.00
2023-05-21T08:09:34.718Z,15.10
2023-05-21T08:13:36.619Z,15.30
2023-05-21T08:17:38.589Z,15.50
2023-05-21T08:21:40.452Z,15.70
2023-05-21T08:25:42.277Z,15.60
2023-05-21T08:29:44.069Z,15.70
2023-05-21T08:33:56.567Z,16.10
2023-05-21T08:37:58.910Z,15.90
2023-05-21T08:42:32.811Z,15.80
2023-05-21T08:46:41.365Z,16.20
2023-05-21T08:50:43.488Z,16.50
2023-05-21T08:54:46.366Z,16.60
2023-05-21T08:58:48.864Z,16.60
2023-05-21T09:02:54.525Z,16.60
2023-05-21T09:06:58.007Z,16.70
2023-05-21T09:11:02.641Z,17.30
2023-05-21T09:15:05.440Z,17.70
2023-05-21T09:19:07.473Z,17.40
2023-05-21T09:23:12.507Z,17.40
2023-05-21T09:27:18.082Z,17.40
2023-05-21T09:31:19.869Z,17.60
2023-05-21T09:35:21.820Z,17.60
2023-05-21T09:39:32.229Z,17.80
2023-05-21T09:43:33.981Z,17.60
2023-05-21T09:47:44.514Z,18.00
2023-05-21T09:51:46.346Z,18.20
2023-05-21T09:55:53.408Z,18.30
2023-05-21T09:59:55.931Z,18.40
2023-05-21T10:03:59.107Z,18.30
2023-05-21T10:08:03.113Z,18.90
2023-05-21T10:12:06.273Z,18.50
2023-05-21T10:16:08.638Z,18.60
2023-05-21T10:20:13.662Z,19.10
2023-05-21T10:24:16.678Z,18.70
2023-05-21T10:28:19.226Z,18.90
2023-05-21T10:32:22.784Z,19.10
2023-05-21T10:36:27.492Z,19.10
2023-05-21T10:40:29.483Z,19.00
2023-05-21T10:44:51.509Z,19.10
2023-05-21T10:49:39.012Z,19.20
2023-05-21T10:54:05.430Z,19.30
2023-05-21T10:58:30.288Z,19.50
2023-05-21T11:02:32.932Z,19.40
2023-05-21T11:06:34.583Z,19.40
2023-05-21T11:10:40.869Z,19.80
2023-05-21T11:14:56.879Z,19.70
2023-05-21T11:18:58.845Z,19.70
2023-05-21T11:23:00.592Z,20.00
2023-05-21T11:27:04.439Z,19.80
2023-05-21T11:31:25.875Z,19.80
2023-05-21T11:35:28.017Z,20.10
2023-05-21T11:39:29.739Z,19.70
2023-05-21T11:43:31.570Z,19.80
2023-05-21T11:47:33.579Z,20.60
2023-05-21T11:51:36.681Z,20.20
2023-05-21T11:55:43.588Z,19.80
2023-05-21T11:59:46.546Z,19.80
2023-05-21T12:03:48.477Z,20.10
2023-05-21T12:07:50.598Z,20.00
2023-05-21T12:11:53.336Z,20.00
2023-05-21T12:15:55.244Z,20.10
2023-05-21T12:19:57.431Z,20.10
2023-05-21T12:23:59.680Z,20.10
2023-05-21T12:28:03.516Z,20.20
2023-05-21T12:32:07.375Z,20.10
2023-05-21T12:36:09.295Z,19.90
2023-05-21T12:40:12.529Z,20.20
2023-05-21T12:44:14.319Z,20.40
2023-05-21T12:48:16.576Z,20.10
2023-05-21T12:52:21.441Z,20.40
2023-05-21T12:56:23.204Z,20.60
2023-05-21T13:00:24.961Z,20.40
2023-05-21T13:04:26.881Z,20.60
2023-05-21T13:08:29.522Z,21.10
2023-05-21T13:12:32.512Z,20.80
2023-05-21T13:16:34.159Z,21.00
2023-05-21T13:20:36.817Z,21.30
2023-05-21T13:24:39.904Z,21.20
2023-05-21T13:28:42.820Z,20.80
2023-05-21T13:32:45.204Z,20.90
2023-05-21T13:36:47.093Z,21.30
2023-05-21T13:40:49.771Z,21.40
2023-05-21T13:44:51.569Z,21.70
2023-05-21T13:48:53.596Z,21.50
2023-05-21T13:52:55.344Z,21.20
2023-05-21T13:56:57.262Z,21.50
2023-05-21T14:00:59.019Z,21.80
2023-05-21T14:05:00.827Z,21.50
2023-05-21T14:09:02.634Z,21.20
2023-05-21T14:13:18.328Z,21.60
2023-05-21T14:17:21.571Z,21.90
2023-05-21T14:21:24.120Z,21.70
2023-05-21T14:25:25.790Z,22.00
2023-05-21T14:29:27.757Z,22.00
2023-05-21T14:33:32.791Z,21.60
2023-05-21T14:37:34.744Z,21.80
2023-05-21T14:41:39.366Z,21.70
2023-05-21T14:45:41.277Z,21.90
2023-05-21T14:49:43.065Z,22.10
2023-05-21T14:53:44.767Z,22.00
2023-05-21T14:57:46.497Z,22.10
2023-05-21T15:01:48.332Z,22.10
2023-05-21T15:05:50.120Z,22.10
2023-05-21T15:09:51.814Z,22.00
2023-05-21T15:13:53.548Z,22.20
2023-05-21T15:17:57.641Z,22.20
2023-05-21T15:21:59.766Z,22.30
2023-05-21T15:26:01.573Z,22.10
2023-05-21T15:30:04.151Z,22.40
2023-05-21T15:34:06.135Z,22.30
2023-05-21T15:38:07.946Z,22.40
2023-05-21T15:42:11.513Z,22.30
2023-05-21T15:46:13.399Z,22.20
2023-05-21T15:50:15.528Z,22.00
2023-05-21T15:54:17.614Z,22.40
2023-05-21T15:58:19.407Z,22.60
2023-05-21T16:02:21.249Z,22.70
2023-05-21T16:06:23.080Z,22.70
2023-05-21T16:10:24.887Z,22.50
2023-05-21T16:14:26.774Z,22.60
2023-05-21T16:18:28.518Z,22.60
2023-05-21T16:22:30.319Z,22.80
2023-05-21T16:26:32.116Z,22.40
2023-05-21T16:30:33.864Z,22.30
2023-05-21T16:34:36.274Z,22.40
2023-05-21T16:38:38.622Z,22.10
2023-05-21T16:42:40.409Z,22.20
2023-05-21T16:46:42.435Z,22.40
2023-05-21T16:50:44.207Z,22.20
2023-05-21T16:54:48.796Z,22.40
2023-05-21T16:58:50.646Z,22.40
2023-05-21T17:02:53.186Z,22.30
2023-05-21T17:06:54.992Z,22.30
2023-05-21T17:10:56.956Z,22.40
2023-05-21T17:15:01.820Z,22.30
2023-05-21T17:19:03.624Z,22.10
2023-05-21T17:23:05.560Z,22.00
2023-05-21T17:27:07.481Z,21.90
2023-05-21T17:31:09.859Z,21.90
2023-05-21T17:35:11.587Z,21.70
2023-05-21T17:39:13.298Z,21.60
2023-05-21T17:43:15.019Z,21.50
2023-05-21T17:47:16.728Z,21.40
2023-05-21T17:51:18.485Z,21.30
2023-05-21T17:55:20.463Z,21.20
2023-05-21T17:59:22.558Z,21.10
2023-05-21T18:03:24.561Z,20.90
2023-05-21T18:07:26.321Z,20.90
2023-05-21T18:11:28.144Z,20.80
2023-05-21T18:15:29.876Z,20.60
2023-05-21T18:19:31.671Z,20.60
2023-05-21T18:23:33.459Z,20.60
2023-05-21T18:27:35.232Z,20.50
2023-05-21T18:31:37.003Z,20.40
2023-05-21T18:35:38.957Z,20.20
2023-05-21T18:39:40.896Z,20.10
2023-05-21T18:43:42.761Z,20.00
2023-05-21T18:47:44.791Z,20.00
2023-05-21T18:51:46.992Z,19.90
2023-05-21T18:55:48.864Z,19.90
2023-05-21T18:59:50.614Z,19.80
2023-05-21T19:03:52.375Z,19.70
2023-05-21T19:07:54.120Z,19.60
2023-05-21T19:11:56.467Z,19.50
2023-05-21T19:15:58.715Z,19.50
2023-05-21T19:20:00.617Z,19.40
2023-05-21T19:24:04.848Z,19.30
2023-05-21T19:28:07.410Z,19.30
2023-05-21T19:32:09.589Z,19.30
2023-05-21T19:36:11.383Z,19.20
2023-05-21T19:40:13.348Z,19.20
2023-05-21T19:44:15.294Z,19.10
2023-05-21T19:48:17.327Z,19.10
2023-05-21T19:52:19.099Z,19.10
2023-05-21T19:56:22.384Z,19.00
2023-05-21T20:00:25.697Z,19.00
2023-05-21T20:04:27.509Z,19.00
2023-05-21T20:08:29.300Z,18.90
2023-05-21T20:12:34.208Z,18.80
2023-05-21T20:16:36.811Z,18.80
2023-05-21T20:20:39.487Z,18.90
2023-05-21T20:24:41.904Z,18.90
2023-05-21T20:28:43.650Z,19.00
2023-05-21T20:32:45.659Z,19.00
2023-05-21T20:36:47.511Z,19.00
2023-05-21T20:40:49.249Z,19.00
2023-05-21T20:44:52.876Z,18.90
2023-05-21T20:48:54.603Z,18.80
2023-05-21T20:52:57.944Z,18.90
2023-05-21T20:57:00.134Z,19.00
2023-05-21T21:01:02.004Z,19.00
2023-05-21T21:05:04.115Z,19.10
2023-05-21T21:09:05.950Z,19.00
2023-05-21T21:13:08.082Z,18.90
2023-05-21T21:17:09.808Z,18.90
2023-05-21T21:21:11.706Z,19.00
2023-05-21T21:25:16.650Z,18.90
2023-05-21T21:29:18.437Z,18.70
2023-05-21T21:33:20.845Z,18.80
2023-05-21T21:37:22.575Z,18.70
2023-05-21T21:41:24.465Z,18.60
2023-05-21T21:45:26.191Z,18.60
2023-05-21T21:49:28.013Z,18.50
2023-05-21T21:53:29.756Z,18.40
2023-05-21T21:57:31.594Z,18.20
2023-05-21T22:01:33.591Z,18.10
2023-05-21T22:05:35.648Z,18.00
2023-05-21T22:09:39.963Z,17.90
2023-05-21T22:13:41.765Z,17.70
2023-05-21T22:17:43.625Z,17.70
2023-05-21T22:21:46.348Z,17.70
2023-05-21T22:25:48.101Z,17.50
2023-05-21T22:29:49.838Z,17.30
2023-05-21T22:33:51.702Z,17.40
2023-05-21T22:37:53.462Z,17.50
2023-05-21T22:41:55.368Z,17.30
2023-05-21T22:45:57.170Z,17.30
2023-05-21T22:50:00.700Z,17.10
2023-05-21T22:54:02.757Z,17.00
2023-05-21T22:58:04.545Z,17.00
2023-05-21T23:02:06.900Z,17.20
2023-05-21T23:06:08.665Z,17.30
2023-05-21T23:10:10.828Z,17.30
2023-05-21T23:14:12.786Z,17.20
2023-05-21T23:18:14.714Z,17.10
2023-05-21T23:22:16.475Z,16.90
2023-05-21T23:26:18.323Z,16.70
2023-05-21T23:30:20.681Z,16.60
2023-05-21T23:34:24.728Z,16.60
2023-05-21T23:38:26.571Z,16.60
2023-05-21T23:42:28.320Z,16.40
2023-05-21T23:46:30.039Z,16.40
2023-05-21T23:50:31.772Z,16.20
2023-05-21T23:54:36.122Z,16.20
2023-05-21T23:58:37.897Z,16.20
